Time;durP1;ratioP1;P1;durP2;ratioP2;P2;SDS_P1;SDS_P2;PMS_P1;PMS_P2;Temp;Humidity;BMP_temperature;BMP_pressure;BME280_temperature;BME280_humidity;BME280_pressure;Samples;Min_cycle;Max_cycle;Signal;HPM_P1;HPM_P2
2023/02/05 00:00:05;;;;;;;2.35;1.50;;;;;;;5.81;39.89;103658.84;5027659;28;96771;-70
2023/02/05 00:02:33;;;;;;;2.25;1.33;;;;;;;5.89;40.30;103656.47;5020634;27;96809;-71
2023/02/05 00:04:59;;;;;;;4.13;1.35;;;;;;;5.79;40.52;103657.88;5015962;28;99447;-70
2023/02/05 00:07:26;;;;;;;3.58;1.45;;;;;;;5.86;40.32;103662.47;5032049;27;101238;-68
2023/02/05 00:09:53;;;;;;;5.70;1.75;;;;;;;5.74;40.14;103654.22;5024099;27;98892;-68
2023/02/05 00:12:19;;;;;;;3.13;1.45;;;;;;;5.74;40.87;103656.84;5022463;27;97438;-72
2023/02/05 00:14:46;;;;;;;3.92;1.23;;;;;;;5.53;40.94;103653.56;5023369;27;99034;-71
2023/02/05 00:17:12;;;;;;;3.97;1.67;;;;;;;5.58;41.18;103649.34;5034653;27;98827;-70
2023/02/05 00:19:40;;;;;;;4.75;1.73;;;;;;;5.55;40.95;103651.91;5032300;27;96946;-71
2023/02/05 00:22:06;;;;;;;6.40;2.08;;;;;;;5.54;41.07;103661.50;5028644;27;97051;-71
2023/02/05 00:24:33;;;;;;;5.60;1.58;;;;;;;5.67;41.02;103656.63;5019507;27;99306;-70
2023/02/05 00:26:59;;;;;;;3.38;1.75;;;;;;;5.40;41.63;103648.78;5027507;27;98867;-70
2023/02/05 00:29:26;;;;;;;6.28;2.03;;;;;;;5.17;42.42;103648.94;5022199;28;97684;-70
2023/02/05 00:31:52;;;;;;;6.32;1.67;;;;;;;5.17;42.91;103641.09;5020216;28;99546;-70
2023/02/05 00:34:18;;;;;;;4.50;1.42;;;;;;;5.13;43.71;103636.56;5014045;28;98185;-70
2023/02/05 00:36:46;;;;;;;2.20;1.45;;;;;;;4.75;44.92;103626.53;5024798;28;98815;-70
2023/02/05 00:39:13;;;;;;;4.95;1.50;;;;;;;4.69;44.82;103634.19;5023423;28;96729;-70
2023/02/05 00:41:40;;;;;;;3.20;1.27;;;;;;;4.81;45.62;103639.84;5023889;28;98557;-71
2023/02/05 00:44:06;;;;;;;6.47;1.42;;;;;;;4.61;46.18;103646.13;5022401;27;99326;-71
2023/02/05 00:46:33;;;;;;;3.80;1.70;;;;;;;4.65;46.48;103650.66;5024291;27;99113;-71
2023/02/05 00:48:59;;;;;;;10.48;2.90;;;;;;;4.74;45.76;103643.09;5026435;27;97445;-71
2023/02/05 00:51:26;;;;;;;4.63;2.00;;;;;;;4.41;46.81;103640.19;5029691;27;96853;-71
2023/02/05 00:53:53;;;;;;;4.07;1.60;;;;;;;4.58;47.48;103641.69;5025145;28;101947;-71
2023/02/05 00:56:20;;;;;;;3.95;1.48;;;;;;;4.47;47.09;103636.88;5024214;27;99103;-71
2023/02/05 00:58:48;;;;;;;2.28;1.30;;;;;;;4.48;47.40;103633.44;5030179;27;96867;-71
2023/02/05 01:01:15;;;;;;;4.88;1.30;;;;;;;4.18;48.33;103638.47;5020433;28;97263;-71
2023/02/05 01:03:42;;;;;;;4.85;1.38;;;;;;;4.21;48.18;103625.47;5020312;27;99044;-71
2023/02/05 01:06:09;;;;;;;3.88;1.50;;;;;;;4.01;48.20;103623.03;5026562;27;99253;-71
2023/02/05 01:08:36;;;;;;;4.95;1.60;;;;;;;4.02;48.49;103616.06;5027441;28;96842;-70
2023/02/05 01:11:06;;;;;;;4.15;1.40;;;;;;;4.00;48.47;103617.75;5030591;27;97872;-70
2023/02/05 01:13:33;;;;;;;5.28;1.38;;;;;;;4.10;48.22;103609.41;5024210;28;99518;-69
2023/02/05 01:15:59;;;;;;;3.80;1.73;;;;;;;3.97;48.20;103608.06;5009066;27;99071;-69
2023/02/05 01:18:25;;;;;;;6.38;2.50;;;;;;;3.87;48.47;103611.16;5019445;27;96794;-68
2023/02/05 01:20:52;;;;;;;4.55;1.80;;;;;;;3.92;48.69;103609.63;5027498;27;96817;-68
2023/02/05 01:23:19;;;;;;;5.43;1.58;;;;;;;3.85;48.69;103605.00;5024054;27;98852;-69
2023/02/05 01:25:45;;;;;;;3.30;1.70;;;;;;;4.04;48.40;103598.72;5024154;27;98847;-69
2023/02/05 01:28:13;;;;;;;5.78;1.70;;;;;;;4.19;48.58;103585.28;5025766;27;97534;-69
2023/02/05 01:30:39;;;;;;;3.10;1.45;;;;;;;4.09;48.32;103596.25;5021148;28;97632;-69
2023/02/05 01:33:06;;;;;;;3.90;1.80;;;;;;;3.97;48.60;103601.94;5025617;28;100312;-69
2023/02/05 01:35:32;;;;;;;5.32;2.08;;;;;;;3.87;48.23;103594.59;5024197;28;98714;-69
2023/02/05 01:37:59;;;;;;;4.40;1.50;;;;;;;4.13;48.53;103588.59;5014344;28;96704;-68
2023/02/05 01:40:25;;;;;;;6.00;2.17;;;;;;;3.76;49.67;103585.44;5020282;28;96767;-69
2023/02/05 01:42:51;;;;;;;3.20;1.40;;;;;;;3.74;49.57;103593.22;5019789;28;99182;-68
2023/02/05 01:45:59;;;;;;;6.57;2.08;;;;;;;3.76;49.62;103586.31;5020549;28;99060;-70
2023/02/05 01:48:32;;;;;;;5.82;1.70;;;;;;;3.63;49.63;103572.72;5004829;28;98838;-70
2023/02/05 01:51:04;;;;;;;4.90;1.73;;;;;;;3.47;49.79;103577.41;5020609;28;97740;-68
2023/02/05 01:53:34;;;;;;;3.38;1.65;;;;;;;3.65;49.99;103566.75;5017784;28;99335;-71
2023/02/05 01:56:05;;;;;;;2.72;1.48;;;;;;;3.62;49.62;103571.84;5018685;28;99324;-68
2023/02/05 01:58:35;;;;;;;4.43;1.90;;;;;;;3.55;49.97;103568.09;5020377;28;98592;-70
2023/02/05 02:01:02;;;;;;;3.67;1.65;;;;;;;3.52;49.41;103562.78;5016237;27;96895;-70
2023/02/05 02:03:31;;;;;;;3.30;1.67;;;;;;;3.56;49.44;103562.03;5016977;27;98775;-69
2023/02/05 02:05:57;;;;;;;3.35;1.88;;;;;;;3.63;49.81;103562.28;5016685;27;99073;-69
2023/02/05 02:08:24;;;;;;;3.35;1.42;;;;;;;3.71;49.71;103566.06;5029640;27;96707;-69
2023/02/05 02:10:53;;;;;;;3.17;1.65;;;;;;;3.51;49.51;103553.16;5025110;27;97706;-69
2023/02/05 02:13:21;;;;;;;4.40;1.88;;;;;;;3.93;49.24;103552.97;5022551;27;99698;-69
2023/02/05 02:15:50;;;;;;;3.08;1.80;;;;;;;3.87;48.47;103543.13;5014853;27;101389;-69
2023/02/05 02:18:27;;;;;;;6.35;2.40;;;;;;;3.90;49.07;103543.25;5019052;27;97064;-69
2023/02/05 02:21:13;;;;;;;4.55;1.88;;;;;;;3.70;49.46;103544.25;5024253;27;98795;-70
2023/02/05 02:23:55;;;;;;;5.95;1.55;;;;;;;3.59;50.18;103529.91;5015840;27;99470;-71
2023/02/05 02:26:39;;;;;;;4.22;1.50;;;;;;;3.50;50.01;103535.66;5022442;27;99212;-68
2023/02/05 02:29:11;;;;;;;3.72;1.65;;;;;;;3.68;48.72;103535.47;5021366;27;97007;-69
2023/02/05 02:31:43;;;;;;;5.32;2.08;;;;;;;3.68;48.43;103540.69;5014374;27;96791;-68
2023/02/05 02:34:16;;;;;;;4.22;1.98;;;;;;;3.62;48.28;103530.00;5029190;27;98846;-68
2023/02/05 02:36:52;;;;;;;7.38;2.20;;;;;;;3.70;48.72;103522.44;5020108;28;99352;-69
2023/02/05 02:39:23;;;;;;;5.30;2.42;;;;;;;3.79;48.39;103512.34;5021812;28;96768;-69
2023/02/05 02:41:53;;;;;;;4.88;2.13;;;;;;;3.74;48.05;103509.53;5022861;28;96979;-72
2023/02/05 02:44:28;;;;;;;9.90;2.55;;;;;;;3.71;47.86;103513.78;5026730;28;98934;-69
2023/02/05 02:46:56;;;;;;;5.22;2.05;;;;;;;3.63;48.02;103515.22;5018435;27;99330;-69
2023/02/05 02:49:28;;;;;;;5.30;2.50;;;;;;;3.69;48.54;103515.44;5021742;28;96760;-69
2023/02/05 02:51:57;;;;;;;5.07;2.28;;;;;;;3.48;48.29;103513.81;5018879;28;97471;-69
2023/02/05 02:54:26;;;;;;;7.85;2.90;;;;;;;3.60;48.83;103516.00;5023359;28;99220;-69
2023/02/05 02:56:55;;;;;;;5.00;2.10;;;;;;;3.58;49.30;103518.56;5030571;28;101738;-69
2023/02/05 02:59:25;;;;;;;6.22;2.03;;;;;;;3.45;49.40;103510.19;5025149;28;99035;-69
2023/02/05 03:01:55;;;;;;;4.07;2.40;;;;;;;3.27;49.47;103520.84;5027985;27;96894;-70
2023/02/05 03:04:25;;;;;;;5.15;2.95;;;;;;;3.45;49.29;103516.31;5022011;27;99016;-69
2023/02/05 03:06:55;;;;;;;9.73;2.72;;;;;;;3.50;48.81;103509.53;5020706;27;100126;-69
2023/02/05 03:09:30;;;;;;;6.53;3.05;;;;;;;3.39;49.48;103523.94;5031348;27;96799;-70
2023/02/05 03:11:56;;;;;;;6.38;2.70;;;;;;;3.50;49.12;103516.47;5026265;27;96943;-70
2023/02/05 03:14:24;;;;;;;4.40;2.50;;;;;;;3.52;49.03;103518.34;5026237;27;99432;-70
2023/02/05 03:16:51;;;;;;;4.38;2.80;;;;;;;3.50;49.04;103512.16;5027196;27;99425;-69
2023/02/05 03:19:17;;;;;;;5.43;2.70;;;;;;;3.48;48.85;103515.53;5034253;27;98445;-70
2023/02/05 03:21:48;;;;;;;5.40;2.88;;;;;;;3.40;49.42;103525.72;5024083;27;97125;-70
2023/02/05 03:24:15;;;;;;;6.47;2.35;;;;;;;3.37;49.38;103519.47;5028337;27;99254;-70
2023/02/05 03:26:41;;;;;;;4.55;2.83;;;;;;;3.48;48.81;103518.13;5028487;27;98723;-70
2023/02/05 03:29:13;;;;;;;10.75;3.22;;;;;;;3.34;49.41;103517.66;5026695;27;97283;-69
2023/02/05 03:31:52;;;;;;;3.72;2.00;;;;;;;3.33;49.71;103528.94;5027773;28;97304;-68
2023/02/05 03:34:31;;;;;;;7.10;2.95;;;;;;;3.26;49.77;103519.06;5018861;28;98296;-68
2023/02/05 03:37:10;;;;;;;6.00;2.83;;;;;;;3.17;50.07;103510.84;5012531;28;99064;-68
2023/02/05 03:39:52;;;;;;;7.28;2.80;;;;;;;3.42;50.00;103507.44;5023985;28;96894;-69
2023/02/05 03:42:33;;;;;;;8.02;2.80;;;;;;;3.35;50.18;103503.72;5025722;28;96766;-68
2023/02/05 03:45:26;;;;;;;7.97;2.95;;;;;;;3.53;49.86;103504.44;5018194;28;99058;-69
2023/02/05 03:48:12;;;;;;;7.35;3.10;;;;;;;3.43;49.95;103512.75;5018912;28;99196;-68
2023/02/05 03:50:41;;;;;;;7.88;2.63;;;;;;;3.28;50.74;103512.19;5023281;28;96817;-68
2023/02/05 03:53:15;;;;;;;8.07;2.70;;;;;;;3.28;50.43;103512.19;5028163;27;96823;-71
2023/02/05 03:55:47;;;;;;;4.80;2.70;;;;;;;3.28;50.85;103516.53;5010613;28;100163;-69
2023/02/05 03:58:21;;;;;;;7.13;3.33;;;;;;;3.25;50.40;103516.38;5026384;28;99234;-69
2023/02/05 04:00:48;;;;;;;8.77;3.00;;;;;;;3.19;51.25;103524.88;5031805;28;98276;-70
2023/02/05 04:03:16;;;;;;;7.38;3.35;;;;;;;3.26;51.32;103526.91;5023073;27;98055;-68
2023/02/05 04:05:42;;;;;;;9.60;2.90;;;;;;;3.27;50.80;103531.31;5019904;27;98274;-68
2023/02/05 04:08:09;;;;;;;5.65;2.47;;;;;;;3.32;50.81;103536.69;5024639;27;100486;-68
2023/02/05 04:10:35;;;;;;;5.15;2.63;;;;;;;3.35;50.21;103529.84;5023028;28;96678;-68
2023/02/05 04:13:01;;;;;;;4.97;2.60;;;;;;;3.35;49.94;103534.22;5022757;27;97269;-69
2023/02/05 04:15:28;;;;;;;5.50;2.20;;;;;;;3.45;49.63;103532.00;5024471;27;98837;-68
2023/02/05 04:17:56;;;;;;;5.45;2.67;;;;;;;3.31;50.54;103542.75;5027167;27;98124;-68
2023/02/05 04:20:24;;;;;;;8.45;2.65;;;;;;;3.29;50.04;103539.19;5029114;27;96870;-68
2023/02/05 04:22:51;;;;;;;3.47;2.03;;;;;;;3.61;48.78;103534.34;5030936;27;96779;-68
2023/02/05 04:25:17;;;;;;;3.60;2.10;;;;;;;3.33;49.28;103536.75;5020654;28;99266;-68
2023/02/05 04:27:44;;;;;;;8.13;2.30;;;;;;;3.60;49.19;103532.59;5022541;28;101652;-68
2023/02/05 04:30:12;;;;;;;5.03;2.90;;;;;;;3.54;48.88;103526.25;5026474;27;97436;-69
2023/02/05 04:32:38;;;;;;;7.07;2.38;;;;;;;3.46;49.29;103528.56;5030380;27;97730;-69
2023/02/05 04:35:05;;;;;;;5.05;2.10;;;;;;;3.44;49.20;103522.38;5023840;28;99238;-69
2023/02/05 04:37:33;;;;;;;5.47;2.15;;;;;;;3.53;48.18;103530.56;5015516;28;98842;-69
2023/02/05 04:40:00;;;;;;;7.40;2.08;;;;;;;3.39;48.50;103539.63;5018509;28;97520;-70
2023/02/05 04:42:26;;;;;;;7.55;2.10;;;;;;;3.53;48.97;103530.56;5023524;28;96963;-72
2023/02/05 04:44:53;;;;;;;5.57;2.30;;;;;;;3.72;48.02;103533.88;5028474;27;98631;-70
2023/02/05 04:47:20;;;;;;;5.90;2.35;;;;;;;3.64;48.43;103530.06;5022259;28;98822;-70
2023/02/05 04:49:46;;;;;;;6.70;2.42;;;;;;;3.60;48.79;103532.59;5019282;28;97983;-70
2023/02/05 04:52:12;;;;;;;5.05;1.95;;;;;;;3.68;48.65;103529.34;5023033;28;97206;-69
2023/02/05 04:54:40;;;;;;;5.35;2.00;;;;;;;3.46;48.78;103528.56;5021075;28;97596;-70
2023/02/05 04:57:06;;;;;;;4.07;1.92;;;;;;;3.78;48.32;103511.44;5025190;28;99106;-72
2023/02/05 04:59:33;;;;;;;5.10;2.58;;;;;;;3.85;47.81;103513.44;5021679;28;97180;-70
2023/02/05 05:02:00;;;;;;;6.95;2.13;;;;;;;3.69;47.68;103521.56;5028263;27;97385;-70
2023/02/05 05:04:26;;;;;;;5.53;1.73;;;;;;;3.70;47.47;103523.34;5025641;27;101862;-69
2023/02/05 05:06:53;;;;;;;3.03;1.70;;;;;;;3.78;47.54;103521.00;5031900;27;98857;-69
2023/02/05 05:09:22;;;;;;;6.82;2.28;;;;;;;3.79;47.47;103512.34;5034105;27;97836;-69
2023/02/05 05:11:50;;;;;;;4.72;1.95;;;;;;;3.43;48.58;103517.06;5026381;27;96885;-68
2023/02/05 05:14:16;;;;;;;7.43;2.30;;;;;;;3.86;47.72;103509.09;5029922;27;99421;-69
2023/02/05 05:16:43;;;;;;;6.65;2.25;;;;;;;3.95;47.69;103509.41;5025204;27;98764;-69
2023/02/05 05:19:09;;;;;;;5.68;1.83;;;;;;;3.99;47.39;103506.09;5020841;27;97178;-69
2023/02/05 05:21:36;;;;;;;3.72;2.05;;;;;;;3.96;47.53;103503.34;5031257;27;99574;-70
2023/02/05 05:24:02;;;;;;;4.18;2.10;;;;;;;3.66;48.74;103499.66;5020404;27;102024;-69
2023/02/05 05:26:29;;;;;;;5.72;2.25;;;;;;;4.03;47.59;103504.44;5023956;27;100257;-70
2023/02/05 05:28:57;;;;;;;3.15;1.88;;;;;;;3.86;47.98;103514.34;5027008;27;98525;-69
2023/02/05 05:31:24;;;;;;;6.90;2.13;;;;;;;3.94;48.12;103512.84;5029736;27;97216;-69
2023/02/05 05:33:51;;;;;;;3.35;1.85;;;;;;;4.03;48.08;103513.19;5023072;28;98886;-70
2023/02/05 05:36:19;;;;;;;7.10;2.10;;;;;;;3.91;48.58;103518.00;5019370;27;99113;-70
2023/02/05 05:38:45;;;;;;;5.68;1.92;;;;;;;3.92;48.26;103527.63;5029728;27;97625;-70
2023/02/05 05:44:04;;;;;;;5.25;2.10;;;;;;;3.83;48.83;103540.38;5027510;27;97673;-70
2023/02/05 05:46:31;;;;;;;5.57;2.17;;;;;;;3.68;48.76;103545.03;5028982;27;99619;-71
2023/02/05 05:48:58;;;;;;;6.53;2.15;;;;;;;3.77;48.82;103543.66;5024482;27;98814;-70
2023/02/05 05:51:27;;;;;;;4.88;2.00;;;;;;;3.94;48.25;103545.16;5013474;27;97167;-70
2023/02/05 05:53:53;;;;;;;5.38;2.00;;;;;;;3.76;48.69;103546.19;5018041;28;98886;-70
2023/02/05 05:56:20;;;;;;;4.72;1.92;;;;;;;4.06;48.08;103542.09;5025262;28;99220;-69
2023/02/05 05:58:47;;;;;;;5.68;2.15;;;;;;;4.03;47.93;103544.59;5023129;27;96859;-70
2023/02/05 06:01:17;;;;;;;6.03;1.98;;;;;;;3.63;48.75;103533.50;5029024;27;96760;-70
2023/02/05 06:03:44;;;;;;;4.38;2.00;;;;;;;4.10;48.11;103520.44;5020074;27;99109;-69
2023/02/05 06:06:11;;;;;;;6.63;2.33;;;;;;;3.83;48.71;103520.34;5023724;27;100870;-70
2023/02/05 06:08:38;;;;;;;7.03;1.88;;;;;;;3.91;47.72;103512.78;5024988;27;96719;-69
2023/02/05 06:11:05;;;;;;;3.15;2.20;;;;;;;3.84;48.50;103521.22;5027105;27;99190;-69
2023/02/05 06:13:32;;;;;;;12.63;2.15;;;;;;;3.89;48.56;103514.44;5028649;27;98237;-69
2023/02/05 06:15:58;;;;;;;3.95;2.03;;;;;;;3.60;49.87;103529.97;5016935;27;98620;-71
2023/02/05 06:18:26;;;;;;;4.72;2.45;;;;;;;4.00;48.72;103513.09;5031596;27;96782;-69
2023/02/05 06:20:53;;;;;;;6.63;1.92;;;;;;;3.92;48.94;103510.22;5028073;27;97161;-69
2023/02/05 06:23:19;;;;;;;7.55;2.15;;;;;;;4.23;48.49;103517.41;5030130;27;99353;-69
2023/02/05 06:25:46;;;;;;;5.45;2.20;;;;;;;3.97;49.24;103518.22;5024023;27;98993;-69
2023/02/05 06:28:12;;;;;;;5.70;2.17;;;;;;;4.12;48.82;103516.16;5024743;27;97135;-69
2023/02/05 06:30:39;;;;;;;7.90;2.60;;;;;;;4.28;47.71;103504.47;5030594;27;96976;-68
2023/02/05 06:33:05;;;;;;;4.47;1.80;;;;;;;4.11;47.82;103511.75;5026143;27;99013;-68
2023/02/05 06:35:33;;;;;;;5.30;2.42;;;;;;;3.97;47.77;103523.44;5021718;28;97944;-69
2023/02/05 06:37:59;;;;;;;8.55;2.47;;;;;;;4.25;47.80;103520.97;5027824;28;97058;-72
2023/02/05 06:40:26;;;;;;;3.17;2.40;;;;;;;4.09;47.78;103522.97;5025071;28;96922;-68
2023/02/05 06:42:53;;;;;;;5.00;2.47;;;;;;;4.17;47.77;103521.53;5029807;28;99480;-69
2023/02/05 06:45:20;;;;;;;6.97;2.60;;;;;;;4.05;48.59;103515.88;5018488;28;99064;-70
2023/02/05 06:47:47;;;;;;;5.95;2.40;;;;;;;3.82;49.70;103512.44;5028107;28;97647;-69
2023/02/05 06:50:13;;;;;;;8.02;2.08;;;;;;;3.50;50.06;103516.47;5024658;28;98138;-69
2023/02/05 06:52:41;;;;;;;5.97;2.58;;;;;;;3.83;48.49;103522.06;5029728;28;99888;-69
2023/02/05 06:55:08;;;;;;;3.80;2.10;;;;;;;4.07;47.56;103530.78;5019907;28;99187;-69
2023/02/05 06:57:34;;;;;;;8.50;2.63;;;;;;;3.79;47.78;103539.38;5026785;28;96805;-69
2023/02/05 07:00:00;;;;;;;6.68;2.50;;;;;;;4.09;47.79;103541.31;5026712;28;97637;-70
2023/02/05 07:02:45;;;;;;;5.95;2.22;;;;;;;4.13;48.50;103540.59;5032566;28;99127;-70
2023/02/05 07:05:12;;;;;;;6.72;2.80;;;;;;;4.14;48.38;103542.34;5018883;28;97807;-70
2023/02/05 07:07:39;;;;;;;8.32;2.72;;;;;;;4.03;48.23;103538.47;5026763;27;97307;-70
2023/02/05 07:10:08;;;;;;;8.27;2.90;;;;;;;4.07;47.16;103541.25;5023219;27;98873;-69
2023/02/05 07:12:34;;;;;;;6.40;2.88;;;;;;;4.35;46.16;103544.00;5032770;27;99189;-69
2023/02/05 07:15:00;;;;;;;8.52;2.85;;;;;;;4.38;45.66;103543.22;5017115;27;98842;-70
2023/02/05 07:17:27;;;;;;;5.70;3.08;;;;;;;4.20;46.71;103525.13;5018812;27;97397;-71
2023/02/05 07:19:53;;;;;;;6.15;2.58;;;;;;;4.20;46.84;103519.91;5026738;27;99131;-70
2023/02/05 07:22:22;;;;;;;7.93;3.35;;;;;;;4.33;45.96;103514.25;5022853;27;100079;-71
2023/02/05 07:24:49;;;;;;;5.88;2.80;;;;;;;4.23;45.93;103513.88;5027071;27;99151;-70
2023/02/05 07:27:17;;;;;;;8.25;2.67;;;;;;;4.57;45.55;103519.44;5020430;28;97899;-69
2023/02/05 07:29:43;;;;;;;4.68;2.38;;;;;;;4.55;44.37;103515.88;5029734;27;96903;-70
2023/02/05 07:32:10;;;;;;;7.53;3.05;;;;;;;4.31;45.25;103525.53;5029255;27;99079;-70
2023/02/05 07:34:36;;;;;;;6.28;2.78;;;;;;;4.33;45.47;103519.47;5024238;27;99191;-69
2023/02/05 07:37:03;;;;;;;6.32;3.00;;;;;;;4.38;45.46;103524.91;5034848;27;96836;-70
2023/02/05 07:39:29;;;;;;;5.80;3.03;;;;;;;4.52;45.42;103514.88;5027755;27;97721;-70
2023/02/05 07:41:56;;;;;;;7.82;2.85;;;;;;;4.13;45.95;103514.44;5023998;28;98905;-70
2023/02/05 07:44:24;;;;;;;6.47;2.85;;;;;;;4.17;46.43;103514.56;5026178;27;101862;-70
2023/02/05 07:46:50;;;;;;;8.68;3.15;;;;;;;4.50;46.05;103504.34;5029846;27;97170;-70
2023/02/05 07:49:17;;;;;;;7.65;2.55;;;;;;;4.53;45.09;103503.56;5033129;27;96879;-71
2023/02/05 07:51:43;;;;;;;10.07;3.13;;;;;;;4.47;44.72;103500.72;5026547;27;99019;-70
2023/02/05 07:54:13;;;;;;;5.10;2.53;;;;;;;4.54;45.24;103505.31;5016391;27;99470;-72
2023/02/05 07:56:40;;;;;;;5.63;2.53;;;;;;;4.32;45.67;103509.88;5034949;27;96753;-69
2023/02/05 07:59:06;;;;;;;8.68;2.95;;;;;;;4.53;44.62;103501.81;5029913;28;96896;-70
2023/02/05 08:01:34;;;;;;;7.65;3.15;;;;;;;4.55;44.73;103508.00;5026319;28;99176;-72
2023/02/05 08:04:01;;;;;;;5.47;2.70;;;;;;;4.48;45.16;103500.78;5019904;27;100603;-71
2023/02/05 08:06:27;;;;;;;7.32;2.50;;;;;;;4.93;44.11;103500.47;5021389;27;96832;-69
2023/02/05 08:08:54;;;;;;;3.67;2.17;;;;;;;4.65;44.56;103490.88;5024335;27;99108;-69
2023/02/05 08:11:21;;;;;;;5.35;2.78;;;;;;;4.63;44.00;103493.44;5026161;27;99457;-69
2023/02/05 08:13:48;;;;;;;7.13;2.33;;;;;;;4.58;43.89;103489.78;5029779;27;98789;-69
2023/02/05 08:16:15;;;;;;;6.30;2.42;;;;;;;4.80;43.77;103489.63;5019968;27;98129;-68
2023/02/05 08:18:46;;;;;;;7.95;2.42;;;;;;;4.91;43.54;103491.69;5021887;27;96917;-69
2023/02/05 08:21:13;;;;;;;5.00;2.42;;;;;;;4.67;44.58;103490.06;5022918;27;98727;-70
2023/02/05 08:23:39;;;;;;;5.90;2.22;;;;;;;4.78;44.15;103490.44;5034249;27;99286;-69
2023/02/05 08:26:05;;;;;;;6.03;1.70;;;;;;;4.67;43.43;103489.19;5023447;28;97166;-69
2023/02/05 08:28:32;;;;;;;3.25;1.88;;;;;;;4.88;43.60;103486.34;5027816;28;96828;-71
2023/02/05 08:30:58;;;;;;;5.35;2.78;;;;;;;4.73;43.82;103502.47;5020812;27;99089;-71
2023/02/05 08:33:25;;;;;;;3.63;2.00;;;;;;;4.69;43.48;103491.03;5025741;27;99412;-71
2023/02/05 08:35:52;;;;;;;4.45;2.63;;;;;;;4.74;43.57;103485.91;5022853;27;96716;-70
2023/02/05 08:38:19;;;;;;;3.95;2.10;;;;;;;5.03;43.36;103482.50;5020068;28;96784;-70
2023/02/05 08:40:45;;;;;;;5.13;2.45;;;;;;;4.92;43.14;103486.53;5022028;27;99262;-72
2023/02/05 08:43:12;;;;;;;8.18;2.28;;;;;;;4.89;43.26;103490.75;5034063;27;99035;-71
2023/02/05 08:45:39;;;;;;;5.82;2.55;;;;;;;5.05;43.28;103487.78;5025002;27;96873;-71
2023/02/05 08:48:05;;;;;;;5.57;2.05;;;;;;;4.76;43.80;103484.25;5024736;28;97286;-72
2023/02/05 08:50:31;;;;;;;6.78;2.53;;;;;;;5.25;43.34;103486.63;5023063;27;98990;-70
2023/02/05 08:52:59;;;;;;;5.18;2.05;;;;;;;5.06;42.84;103479.94;5023726;27;97736;-70
2023/02/05 08:55:25;;;;;;;2.78;2.05;;;;;;;5.27;42.20;103482.31;5029403;27;96798;-70
2023/02/05 08:57:52;;;;;;;4.25;2.20;;;;;;;5.16;42.02;103478.50;5015973;27;97251;-70
2023/02/05 09:00:19;;;;;;;4.32;2.13;;;;;;;4.87;41.99;103477.59;5019686;28;98920;-70
2023/02/05 09:02:46;;;;;;;4.78;1.83;;;;;;;4.80;43.04;103476.53;5024836;27;99176;-71
2023/02/05 09:05:13;;;;;;;3.70;1.90;;;;;;;4.89;42.43;103481.16;5028389;27;100071;-70
2023/02/05 09:07:40;;;;;;;6.78;2.30;;;;;;;5.09;42.85;103480.06;5020533;27;97226;-71
2023/02/05 09:10:09;;;;;;;7.20;2.40;;;;;;;5.09;42.81;103487.03;5022720;27;98808;-70
2023/02/05 09:12:35;;;;;;;6.07;2.25;;;;;;;5.37;42.07;103494.00;5019265;27;99048;-71
2023/02/05 09:15:02;;;;;;;6.70;2.47;;;;;;;5.37;41.81;103489.63;5018985;27;97286;-70
2023/02/05 09:17:28;;;;;;;9.00;2.60;;;;;;;5.33;41.87;103489.47;5021639;27;98900;-70
2023/02/05 09:19:55;;;;;;;5.15;2.20;;;;;;;5.48;42.02;103488.19;5025783;27;99587;-69
2023/02/05 09:22:23;;;;;;;6.63;2.50;;;;;;;5.34;42.41;103486.00;5023491;27;99441;-71
2023/02/05 09:24:49;;;;;;;5.30;2.33;;;;;;;5.45;41.29;103485.47;5023110;27;97385;-70
2023/02/05 09:27:17;;;;;;;5.53;2.38;;;;;;;5.28;42.33;103480.59;5024966;27;98719;-70
2023/02/05 09:29:43;;;;;;;5.45;2.20;;;;;;;5.43;42.33;103486.28;5026395;27;99184;-70
2023/02/05 09:32:10;;;;;;;7.82;2.63;;;;;;;5.52;42.06;103486.53;5025587;27;99109;-69
2023/02/05 09:34:36;;;;;;;4.57;1.65;;;;;;;5.40;41.73;103491.44;5022937;27;98836;-69
2023/02/05 09:37:03;;;;;;;5.35;2.38;;;;;;;5.64;41.76;103497.41;5030421;27;97167;-69
2023/02/05 09:39:30;;;;;;;6.45;2.30;;;;;;;5.63;41.47;103490.38;5023455;27;99534;-69
2023/02/05 09:42:04;;;;;;;6.15;1.88;;;;;;;5.65;41.88;103483.41;5025965;27;98824;-70
2023/02/05 09:44:48;;;;;;;6.68;2.35;;;;;;;5.65;41.99;103493.91;5026174;27;99093;-69
2023/02/05 09:47:23;;;;;;;5.43;2.30;;;;;;;5.99;41.47;103491.41;5024691;27;97220;-70
2023/02/05 09:49:55;;;;;;;9.95;2.22;;;;;;;5.91;40.75;103487.69;5024739;27;98922;-71
2023/02/05 09:52:26;;;;;;;6.65;1.83;;;;;;;6.16;40.52;103486.63;5024357;27;98995;-71
2023/02/05 09:54:58;;;;;;;3.40;2.10;;;;;;;6.13;39.97;103488.28;5024769;27;98840;-70
2023/02/05 09:57:32;;;;;;;4.22;1.70;;;;;;;6.01;40.56;103478.34;5025581;27;97427;-69
2023/02/05 10:00:00;;;;;;;4.57;2.00;;;;;;;6.08;40.62;103487.25;5023921;27;99011;-71
2023/02/05 10:02:35;;;;;;;5.68;1.98;;;;;;;5.92;40.49;103480.72;5021321;27;99350;-70
2023/02/05 10:05:02;;;;;;;7.68;2.10;;;;;;;6.22;40.65;103478.00;5007770;27;99408;-72
2023/02/05 10:07:37;;;;;;;6.35;2.28;;;;;;;6.33;40.77;103479.16;5016328;27;98837;-71
2023/02/05 10:10:24;;;;;;;3.97;1.90;;;;;;;6.15;40.19;103483.97;5018163;27;99519;-71
2023/02/05 10:13:25;;;;;;;5.15;1.77;;;;;;;6.23;40.64;103470.19;5021739;27;99020;-70
2023/02/05 10:16:06;;;;;;;5.22;2.33;;;;;;;6.30;40.33;103464.22;5024883;27;96851;-71
2023/02/05 10:18:44;;;;;;;5.18;2.05;;;;;;;6.53;39.73;103459.53;5022218;27;98597;-71
2023/02/05 10:21:28;;;;;;;11.43;1.85;;;;;;;6.71;39.46;103459.97;5013414;27;98877;-71
2023/02/05 10:24:23;;;;;;;5.88;2.28;;;;;;;6.91;39.13;103449.91;5015426;27;98939;-70
2023/02/05 10:26:52;;;;;;;10.00;2.03;;;;;;;6.82;39.67;103440.94;5022226;28;98970;-72
2023/02/05 10:29:31;;;;;;;5.03;1.83;;;;;;;6.65;39.64;103438.81;5024318;27;97822;-70
2023/02/05 10:32:09;;;;;;;4.10;1.80;;;;;;;6.74;39.24;103440.78;5027674;27;98909;-72
2023/02/05 10:34:47;;;;;;;12.55;2.35;;;;;;;6.74;39.82;103432.88;5013155;28;99430;-70
2023/02/05 10:37:18;;;;;;;6.40;2.10;;;;;;;6.84;39.71;103431.34;5018512;27;99135;-71
2023/02/05 10:39:46;;;;;;;6.72;2.85;;;;;;;6.96;38.96;103434.22;5021978;28;97316;-73
2023/02/05 10:42:23;;;;;;;7.65;2.75;;;;;;;6.93;39.36;103434.19;5019656;27;100844;-71
2023/02/05 10:44:58;;;;;;;3.83;2.35;;;;;;;6.80;39.56;103433.91;5017920;27;98947;-70
2023/02/05 10:47:44;;;;;;;5.03;2.40;;;;;;;6.78;39.71;103435.59;5022588;28;97487;-71
2023/02/05 10:50:19;;;;;;;4.93;2.33;;;;;;;6.89;39.82;103429.72;5010069;27;97354;-70
2023/02/05 10:52:46;;;;;;;8.98;2.60;;;;;;;6.82;39.55;103430.44;5023796;27;101729;-72
2023/02/05 10:55:13;;;;;;;4.38;2.10;;;;;;;6.91;40.22;103433.25;5020031;27;99264;-71
2023/02/05 10:57:40;;;;;;;6.60;3.10;;;;;;;6.89;40.05;103427.09;5026288;28;97007;-71
2023/02/05 11:00:14;;;;;;;8.65;2.40;;;;;;;7.04;39.86;103425.66;5020827;27;97842;-71
2023/02/05 11:02:45;;;;;;;5.60;2.30;;;;;;;6.94;40.21;103414.94;5030901;27;97727;-71
2023/02/05 11:05:19;;;;;;;6.03;2.25;;;;;;;6.71;40.28;103417.03;5022465;27;99169;-71
2023/02/05 11:07:47;;;;;;;6.60;1.98;;;;;;;6.73;40.70;103408.34;5028231;27;97230;-70
2023/02/05 11:10:16;;;;;;;7.57;1.60;;;;;;;6.79;40.30;103412.84;5015812;27;97550;-71
2023/02/05 11:12:44;;;;;;;4.72;2.13;;;;;;;6.77;40.50;103422.41;5025534;27;98413;-70
2023/02/05 11:15:20;;;;;;;4.55;1.55;;;;;;;6.62;40.03;103417.72;5025297;28;99089;-70
2023/02/05 11:17:52;;;;;;;2.33;1.23;;;;;;;6.94;39.85;103410.56;5019536;27;97110;-70
2023/02/05 11:20:26;;;;;;;5.47;1.60;;;;;;;7.02;40.01;103419.47;5026883;27;96810;-71
2023/02/05 11:23:06;;;;;;;5.10;1.65;;;;;;;7.06;40.15;103420.44;5022634;27;99030;-71
2023/02/05 11:25:33;;;;;;;5.80;1.60;;;;;;;6.80;39.98;103417.25;5020057;28;99155;-69
2023/02/05 11:28:02;;;;;;;4.65;1.45;;;;;;;6.89;40.10;103411.31;5024316;27;97408;-71
2023/02/05 11:30:32;;;;;;;4.68;1.70;;;;;;;6.87;39.97;103407.75;5022704;28;96858;-70
2023/02/05 11:33:23;;;;;;;5.00;1.70;;;;;;;6.49;40.64;103410.41;5025950;27;101742;-72
2023/02/05 11:35:52;;;;;;;6.38;1.42;;;;;;;6.63;40.44;103406.34;5023622;27;99541;-70
2023/02/05 11:38:28;;;;;;;4.03;1.25;;;;;;;6.71;40.48;103404.78;5019705;27;97104;-70
2023/02/05 11:40:57;;;;;;;4.00;1.50;;;;;;;6.79;40.50;103405.84;5015135;27;97358;-71
2023/02/05 11:43:28;;;;;;;4.15;1.70;;;;;;;6.98;40.58;103404.50;5021522;27;99321;-71